createdAt,value
2017-05-07T00:00:11.783Z,0
2017-05-07T00:00:52.296Z,0
2017-05-07T00:01:32.782Z,0
2017-05-07T00:02:13.912Z,0
2017-05-07T00:02:54.387Z,0
2017-05-07T00:03:34.874Z,0
2017-05-07T00:04:15.347Z,0
2017-05-07T00:04:55.827Z,0
2017-05-07T00:05:36.329Z,0
2017-05-07T00:06:16.799Z,0
2017-05-07T00:06:57.268Z,0
2017-05-07T00:07:37.705Z,0
2017-05-07T00:08:18.151Z,0
2017-05-07T00:08:58.607Z,0
2017-05-07T00:09:39.051Z,0
2017-05-07T00:10:19.512Z,0
2017-05-07T00:10:59.988Z,0
2017-05-07T00:11:40.455Z,0
2017-05-07T00:12:20.877Z,0
2017-05-07T00:13:01.312Z,0
2017-05-07T00:13:41.792Z,0
2017-05-07T00:14:22.279Z,0
2017-05-07T00:15:02.742Z,0
2017-05-07T00:15:43.180Z,0
2017-05-07T00:16:24.339Z,0
2017-05-07T00:18:57.986Z,0
2017-05-07T00:19:38.468Z,0
2017-05-07T00:20:18.936Z,0
2017-05-07T00:20:59.419Z,0
2017-05-07T00:21:39.920Z,0
2017-05-07T00:22:20.371Z,0
2017-05-07T00:23:00.856Z,0
2017-05-07T00:23:41.319Z,0
2017-05-07T00:24:21.806Z,0
2017-05-07T00:25:02.291Z,0
2017-05-07T00:25:42.778Z,0
2017-05-07T00:26:23.326Z,0
2017-05-07T00:27:03.809Z,0
2017-05-07T00:27:44.312Z,0
2017-05-07T00:28:24.769Z,0
2017-05-07T00:29:05.261Z,0
2017-05-07T00:29:45.750Z,0
2017-05-07T00:30:26.208Z,0
2017-05-07T00:31:06.680Z,0
2017-05-07T00:31:47.138Z,0
2017-05-07T00:32:27.593Z,0
2017-05-07T00:33:08.079Z,0
2017-05-07T00:33:48.522Z,0
2017-05-07T00:34:28.978Z,0
2017-05-07T00:35:09.447Z,0
2017-05-07T00:35:49.858Z,0
2017-05-07T00:38:17.797Z,0
2017-05-07T00:38:58.275Z,0
2017-05-07T00:39:38.734Z,0
2017-05-07T00:40:19.222Z,0
2017-05-07T00:40:59.722Z,0
2017-05-07T00:41:40.193Z,0
2017-05-07T00:42:20.659Z,0
2017-05-07T00:43:01.154Z,0
2017-05-07T00:43:41.613Z,0
2017-05-07T00:44:22.107Z,0
2017-05-07T00:45:02.583Z,0
2017-05-07T00:45:43.061Z,0
2017-05-07T00:46:23.552Z,0
2017-05-07T00:47:04.036Z,0
2017-05-07T00:47:44.493Z,0
2017-05-07T00:48:25.067Z,0
2017-05-07T00:49:05.452Z,0
2017-05-07T00:49:45.917Z,0
2017-05-07T00:50:26.396Z,0
2017-05-07T00:51:06.873Z,0
2017-05-07T00:51:47.348Z,0
2017-05-07T00:52:27.801Z,0
2017-05-07T00:53:08.260Z,0
2017-05-07T00:53:48.724Z,0
2017-05-07T00:54:29.186Z,0
2017-05-07T00:55:09.611Z,0
2017-05-07T00:55:50.793Z,0
2017-05-07T00:56:31.247Z,0
2017-05-07T00:57:12.483Z,0
2017-05-07T00:57:52.927Z,0
2017-05-07T00:58:33.394Z,0
2017-05-07T00:59:13.867Z,0
2017-05-07T00:59:54.294Z,0
2017-05-07T01:01:51.936Z,0
2017-05-07T01:02:32.416Z,0
2017-05-07T01:03:12.906Z,0
2017-05-07T01:03:53.382Z,0
2017-05-07T01:04:33.882Z,0
2017-05-07T01:05:14.349Z,0
2017-05-07T01:05:54.841Z,0
2017-05-07T01:06:35.313Z,0
2017-05-07T01:07:15.807Z,0
2017-05-07T01:07:56.304Z,0
2017-05-07T01:08:36.791Z,0
2017-05-07T01:09:17.276Z,0
2017-05-07T01:09:57.747Z,0
2017-05-07T01:10:38.209Z,0
2017-05-07T01:11:18.797Z,0
2017-05-07T01:11:59.266Z,0
2017-05-07T01:12:39.733Z,0
2017-05-07T01:13:20.174Z,0
2017-05-07T01:14:00.643Z,0
2017-05-07T01:14:41.073Z,0
2017-05-07T01:15:21.562Z,0
2017-05-07T01:16:02.799Z,0
2017-05-07T01:16:43.253Z,0
2017-05-07T01:17:23.716Z,0
2017-05-07T01:18:04.188Z,0
2017-05-07T01:18:44.676Z,0
2017-05-07T01:19:25.181Z,0
2017-05-07T01:20:05.690Z,0
2017-05-07T01:20:46.152Z,0
2017-05-07T01:21:26.616Z,0
2017-05-07T01:23:54.557Z,0
2017-05-07T01:24:35.063Z,0
2017-05-07T01:25:15.509Z,0
2017-05-07T01:25:55.986Z,0
2017-05-07T01:26:36.485Z,0
2017-05-07T01:27:16.981Z,0
2017-05-07T01:27:57.463Z,0
2017-05-07T01:28:37.963Z,0
2017-05-07T01:29:18.440Z,0
2017-05-07T01:29:58.912Z,0
2017-05-07T01:30:39.399Z,0
2017-05-07T01:31:19.871Z,0
2017-05-07T01:32:00.418Z,0
2017-05-07T01:32:40.895Z,0
2017-05-07T01:33:21.410Z,0
2017-05-07T01:34:01.873Z,0
2017-05-07T01:34:42.353Z,0
2017-05-07T01:35:22.812Z,0
2017-05-07T01:36:03.265Z,0
2017-05-07T01:36:43.745Z,0
2017-05-07T01:39:11.727Z,0
2017-05-07T01:39:53.079Z,0
2017-05-07T01:40:33.521Z,0
2017-05-07T01:41:14.066Z,0
2017-05-07T01:41:55.277Z,0
2017-05-07T01:42:35.713Z,0
2017-05-07T01:43:16.150Z,0
2017-05-07T01:43:57.397Z,0
2017-05-07T01:44:37.857Z,0
2017-05-07T01:45:18.380Z,0
2017-05-07T01:45:58.822Z,0
2017-05-07T01:46:39.291Z,0
2017-05-07T01:49:12.266Z,0
2017-05-07T01:49:52.732Z,0
2017-05-07T01:50:33.184Z,0
2017-05-07T01:51:13.646Z,0
2017-05-07T01:51:54.142Z,0
2017-05-07T01:52:34.623Z,0
2017-05-07T01:53:15.106Z,0
2017-05-07T01:53:56.179Z,0
2017-05-07T01:54:36.632Z,0
2017-05-07T01:55:17.136Z,0
2017-05-07T01:55:57.575Z,0
2017-05-07T01:56:38.005Z,0
2017-05-07T01:57:18.470Z,0
2017-05-07T01:57:58.934Z,0
2017-05-07T01:58:40.061Z,0
2017-05-07T02:01:13.087Z,0
2017-05-07T02:01:53.576Z,0
2017-05-07T02:02:34.054Z,0
2017-05-07T02:03:14.562Z,0
2017-05-07T02:03:55.052Z,0
2017-05-07T02:06:07.756Z,0
2017-05-07T02:06:48.254Z,0
2017-05-07T02:07:28.722Z,0
2017-05-07T02:08:10.163Z,0
2017-05-07T02:08:50.634Z,0
2017-05-07T02:09:31.118Z,0
2017-05-07T02:10:11.614Z,0
2017-05-07T02:10:52.948Z,0
2017-05-07T02:11:33.446Z,0
2017-05-07T02:12:13.893Z,0
2017-05-07T02:12:54.395Z,0
2017-05-07T02:13:34.862Z,0
2017-05-07T02:14:15.309Z,0
2017-05-07T02:14:55.768Z,0
2017-05-07T02:15:36.280Z,0
2017-05-07T02:16:16.703Z,0
2017-05-07T02:16:57.163Z,0
2017-05-07T02:17:37.614Z,0
2017-05-07T02:18:18.054Z,0
2017-05-07T02:18:58.547Z,0
2017-05-07T02:19:38.981Z,0
2017-05-07T02:20:19.430Z,0
2017-05-07T02:20:59.899Z,0
2017-05-07T02:21:40.365Z,0
2017-05-07T02:22:20.805Z,0
2017-05-07T02:23:01.282Z,0
2017-05-07T02:23:41.735Z,0
2017-05-07T02:24:22.199Z,0
2017-05-07T02:25:02.637Z,0
2017-05-07T02:25:43.091Z,0
2017-05-07T02:26:23.556Z,0
2017-05-07T02:27:04.027Z,0
2017-05-07T02:27:44.504Z,0
2017-05-07T02:28:24.982Z,0
2017-05-07T02:30:37.926Z,0
2017-05-07T02:31:18.367Z,0
2017-05-07T02:31:58.829Z,0
2017-05-07T02:32:39.350Z,0
2017-05-07T02:33:19.803Z,0
2017-05-07T02:34:00.278Z,0
2017-05-07T02:36:13.550Z,0
2017-05-07T02:36:54.026Z,0
2017-05-07T02:37:34.529Z,0
2017-05-07T02:38:15.004Z,0
2017-05-07T02:38:55.463Z,0
2017-05-07T02:39:35.960Z,0
2017-05-07T02:40:16.477Z,0
2017-05-07T02:40:56.944Z,0
2017-05-07T02:43:29.980Z,0
2017-05-07T02:44:10.438Z,0
2017-05-07T02:44:50.917Z,0
2017-05-07T02:45:31.368Z,0
2017-05-07T02:46:11.837Z,0
2017-05-07T02:46:52.286Z,0
2017-05-07T02:47:32.736Z,0
2017-05-07T02:48:13.230Z,0
2017-05-07T02:48:53.708Z,0
2017-05-07T02:49:34.184Z,0
2017-05-07T02:50:15.416Z,0
2017-05-07T02:50:55.859Z,0
2017-05-07T02:51:36.308Z,0
2017-05-07T02:52:16.749Z,0
2017-05-07T02:52:57.197Z,0
2017-05-07T02:53:37.639Z,0
2017-05-07T02:54:18.105Z,0
2017-05-07T02:54:58.640Z,0
2017-05-07T02:55:39.075Z,0
2017-05-07T02:56:19.523Z,0
2017-05-07T02:56:59.983Z,0
2017-05-07T02:57:40.435Z,0
2017-05-07T02:58:21.500Z,0
2017-05-07T02:59:01.971Z,0
2017-05-07T02:59:42.423Z,0
2017-05-07T03:00:22.876Z,0
2017-05-07T03:01:03.370Z,0
2017-05-07T03:03:16.099Z,0
2017-05-07T03:03:56.601Z,0
2017-05-07T03:04:37.084Z,0
2017-05-07T03:06:49.802Z,0
2017-05-07T03:07:30.302Z,0
2017-05-07T03:08:10.763Z,0
2017-05-07T03:08:51.227Z,0
2017-05-07T03:09:31.709Z,0
2017-05-07T03:10:12.171Z,0
2017-05-07T03:10:52.656Z,0
2017-05-07T03:11:33.131Z,0
2017-05-07T03:12:13.573Z,0
2017-05-07T03:12:54.040Z,0
2017-05-07T03:13:34.485Z,0
2017-05-07T03:14:14.893Z,0
2017-05-07T03:14:55.345Z,0
2017-05-07T03:15:35.785Z,0
2017-05-07T03:16:16.259Z,0
2017-05-07T03:16:56.700Z,0
2017-05-07T03:17:37.147Z,0
2017-05-07T03:18:17.636Z,0
2017-05-07T03:18:58.082Z,0
2017-05-07T03:19:38.548Z,0
2017-05-07T03:20:19.004Z,0
2017-05-07T03:20:59.444Z,0
2017-05-07T03:21:39.882Z,0
2017-05-07T03:22:20.337Z,0
2017-05-07T03:23:00.793Z,0
2017-05-07T03:23:41.270Z,0
2017-05-07T03:26:14.277Z,0
2017-05-07T03:26:54.739Z,0
2017-05-07T03:27:35.209Z,0
2017-05-07T03:28:15.662Z,0
2017-05-07T03:28:56.127Z,0
2017-05-07T03:29:37.535Z,0
2017-05-07T03:30:18.056Z,4
2017-05-07T03:30:58.505Z,4
2017-05-07T03:31:38.972Z,4
2017-05-07T03:32:19.437Z,0
2017-05-07T03:32:59.889Z,4
2017-05-07T03:33:40.340Z,0
2017-05-07T03:34:20.793Z,4
2017-05-07T03:35:01.243Z,4
2017-05-07T03:35:41.713Z,4
2017-05-07T03:36:22.161Z,4
2017-05-07T03:37:02.642Z,4
2017-05-07T03:37:43.081Z,8
2017-05-07T03:38:23.538Z,4
2017-05-07T03:39:04.549Z,4
2017-05-07T03:39:44.987Z,4
2017-05-07T03:40:25.448Z,4
2017-05-07T03:41:05.912Z,4
2017-05-07T03:41:46.352Z,4
2017-05-07T03:42:26.817Z,8
2017-05-07T03:43:07.283Z,8
2017-05-07T03:43:47.737Z,12
2017-05-07T03:44:28.186Z,16
2017-05-07T03:45:09.610Z,12
2017-05-07T03:45:50.059Z,20
2017-05-07T03:46:30.509Z,20
2017-05-07T03:47:10.992Z,20
2017-05-07T03:47:51.437Z,20
2017-05-07T03:48:31.938Z,24
2017-05-07T03:49:12.351Z,24
2017-05-07T03:49:52.771Z,28
2017-05-07T03:50:33.233Z,32
2017-05-07T03:51:13.699Z,40
2017-05-07T03:51:54.167Z,44
2017-05-07T03:52:34.636Z,48
2017-05-07T03:53:15.086Z,52
2017-05-07T03:53:56.157Z,48
2017-05-07T03:58:16.802Z,72
2017-05-07T03:58:57.254Z,88
2017-05-07T03:59:37.761Z,88
2017-05-07T04:00:18.255Z,80
2017-05-07T04:00:58.756Z,76
2017-05-07T04:01:39.284Z,72
2017-05-07T04:02:19.734Z,80
2017-05-07T04:03:00.228Z,84
2017-05-07T04:03:40.710Z,92
2017-05-07T04:04:21.170Z,88
2017-05-07T04:05:01.667Z,84
2017-05-07T04:05:42.127Z,96
2017-05-07T04:06:22.618Z,100
2017-05-07T04:07:03.064Z,100
2017-05-07T04:07:43.519Z,100
2017-05-07T04:08:23.994Z,96
2017-05-07T04:09:04.447Z,92
2017-05-07T04:09:44.903Z,96
2017-05-07T04:10:25.375Z,96
2017-05-07T04:11:05.817Z,132
2017-05-07T04:11:46.278Z,148
2017-05-07T04:12:26.689Z,144
2017-05-07T04:13:07.147Z,148
2017-05-07T04:13:47.567Z,156
2017-05-07T04:14:28.014Z,160
2017-05-07T04:15:08.464Z,160
2017-05-07T04:15:48.911Z,164
2017-05-07T04:16:29.360Z,156
2017-05-07T04:17:09.856Z,172
2017-05-07T04:17:50.275Z,192
2017-05-07T04:18:30.740Z,172
2017-05-07T04:19:11.190Z,180
2017-05-07T04:19:51.629Z,188
2017-05-07T04:20:32.092Z,164
2017-05-07T04:21:12.534Z,156
2017-05-07T04:21:52.995Z,136
2017-05-07T04:22:33.615Z,144
2017-05-07T04:23:14.105Z,136
2017-05-07T04:23:54.538Z,124
2017-05-07T04:24:34.985Z,112
2017-05-07T04:25:15.416Z,108
2017-05-07T04:25:55.897Z,124
2017-05-07T04:26:36.371Z,136
2017-05-07T04:27:16.822Z,152
2017-05-07T04:27:57.263Z,164
2017-05-07T04:28:37.719Z,172
2017-05-07T04:29:18.165Z,240
2017-05-07T04:29:58.625Z,300
2017-05-07T04:32:31.645Z,492
2017-05-07T04:35:04.638Z,628
2017-05-07T04:35:45.122Z,648
2017-05-07T04:36:25.597Z,656
2017-05-07T04:37:06.081Z,640
2017-05-07T04:37:46.533Z,628
2017-05-07T04:38:26.995Z,640
2017-05-07T04:39:07.498Z,612
2017-05-07T04:39:47.979Z,616
2017-05-07T04:40:28.406Z,560
2017-05-07T04:41:08.851Z,548
2017-05-07T04:41:49.298Z,572
2017-05-07T04:44:22.541Z,552
2017-05-07T04:45:03.019Z,524
2017-05-07T04:45:43.496Z,496
2017-05-07T04:46:23.970Z,484
2017-05-07T04:47:04.481Z,464
2017-05-07T04:47:44.951Z,444
2017-05-07T04:49:57.764Z,448
2017-05-07T04:50:38.248Z,420
2017-05-07T04:51:18.755Z,384
2017-05-07T04:51:59.199Z,336
2017-05-07T04:52:39.673Z,316
2017-05-07T04:53:20.240Z,308
2017-05-07T04:54:00.665Z,336
2017-05-07T04:54:41.094Z,364
2017-05-07T04:55:21.552Z,372
2017-05-07T04:56:01.988Z,372
2017-05-07T04:56:42.422Z,364
2017-05-07T04:57:22.883Z,348
2017-05-07T04:58:03.343Z,332
2017-05-07T04:58:43.802Z,344
2017-05-07T04:59:24.256Z,320
2017-05-07T05:00:04.733Z,292
2017-05-07T05:00:45.178Z,284
2017-05-07T05:01:25.664Z,340
2017-05-07T05:02:06.852Z,384
2017-05-07T05:02:47.294Z,408
2017-05-07T05:03:27.727Z,464
2017-05-07T05:04:08.185Z,488
2017-05-07T05:06:05.838Z,416
2017-05-07T05:06:46.296Z,380
2017-05-07T05:07:26.786Z,320
2017-05-07T05:08:07.296Z,260
2017-05-07T05:08:48.729Z,260
2017-05-07T05:09:29.117Z,260
2017-05-07T05:10:09.594Z,284
2017-05-07T05:10:50.082Z,384
2017-05-07T05:11:30.568Z,440
2017-05-07T05:12:11.615Z,512
2017-05-07T05:12:52.097Z,444
2017-05-07T05:13:32.594Z,380
2017-05-07T05:14:13.085Z,364
2017-05-07T05:14:53.562Z,388
2017-05-07T05:15:34.773Z,356
2017-05-07T05:16:15.252Z,324
2017-05-07T05:18:48.285Z,560
2017-05-07T05:21:21.344Z,448
2017-05-07T05:22:01.844Z,444
2017-05-07T05:22:42.316Z,520
2017-05-07T05:23:22.861Z,600
2017-05-07T05:24:03.334Z,628
2017-05-07T05:24:43.861Z,704
2017-05-07T05:25:24.339Z,788
2017-05-07T05:26:04.832Z,808
2017-05-07T05:26:45.414Z,772
2017-05-07T05:27:25.894Z,716
2017-05-07T05:28:06.356Z,748
2017-05-07T05:28:46.817Z,876
2017-05-07T05:29:27.281Z,916
2017-05-07T05:30:07.735Z,884
2017-05-07T05:30:48.182Z,864
2017-05-07T05:31:28.636Z,748
2017-05-07T05:32:09.049Z,668
2017-05-07T05:32:49.515Z,660
2017-05-07T05:33:29.955Z,572
2017-05-07T05:34:10.425Z,644
2017-05-07T05:34:50.871Z,692
2017-05-07T05:35:31.365Z,856
2017-05-07T05:36:11.841Z,908
2017-05-07T05:36:52.274Z,892
2017-05-07T05:37:32.765Z,1044
2017-05-07T05:38:13.215Z,1360
2017-05-07T05:38:53.687Z,1604
2017-05-07T05:39:34.145Z,1860
2017-05-07T05:40:14.627Z,2064
2017-05-07T05:40:55.047Z,2044
2017-05-07T05:41:35.586Z,1872
2017-05-07T05:42:16.078Z,1816
2017-05-07T05:42:56.531Z,1876
2017-05-07T05:43:36.989Z,2024
2017-05-07T05:44:17.456Z,2252
2017-05-07T05:44:57.875Z,2536
2017-05-07T05:45:38.320Z,2772
2017-05-07T05:47:51.033Z,2944
2017-05-07T05:48:31.521Z,2940
2017-05-07T05:49:12.006Z,3152
2017-05-07T05:49:52.475Z,3332
2017-05-07T05:50:32.947Z,3404
2017-05-07T05:51:14.017Z,3420
2017-05-07T05:51:54.440Z,3284
2017-05-07T05:52:34.912Z,3164
2017-05-07T05:54:52.747Z,2932
2017-05-07T05:55:33.211Z,2656
2017-05-07T05:58:01.140Z,2944
2017-05-07T05:58:41.625Z,2528
2017-05-07T05:59:22.071Z,2432
2017-05-07T06:00:02.569Z,2676
2017-05-07T06:00:43.060Z,2976
2017-05-07T06:01:23.503Z,2872
2017-05-07T06:02:03.957Z,2680
2017-05-07T06:02:44.443Z,2440
2017-05-07T06:03:24.899Z,2520
2017-05-07T06:04:05.368Z,2804
2017-05-07T06:04:45.795Z,2512
2017-05-07T06:05:26.299Z,2208
2017-05-07T06:06:07.310Z,2092
2017-05-07T06:06:47.782Z,2548
2017-05-07T06:07:28.190Z,2636
2017-05-07T06:08:08.609Z,2612
2017-05-07T06:08:49.076Z,2328
2017-05-07T06:09:29.494Z,2324
2017-05-07T06:10:09.990Z,2532
2017-05-07T06:10:50.442Z,2808
2017-05-07T06:11:30.934Z,3196
2017-05-07T06:12:11.301Z,3248
2017-05-07T06:12:51.744Z,3280
2017-05-07T06:13:32.191Z,2824
2017-05-07T06:14:12.658Z,2148
2017-05-07T06:14:53.119Z,1988
2017-05-07T06:15:33.573Z,1916
2017-05-07T06:16:14.020Z,1816
2017-05-07T06:16:54.481Z,2036
2017-05-07T06:17:34.927Z,2112
2017-05-07T06:18:15.408Z,2216
2017-05-07T06:18:55.867Z,2388
2017-05-07T06:19:36.322Z,2736
2017-05-07T06:21:54.139Z,2280
2017-05-07T06:22:34.633Z,2272
2017-05-07T06:23:15.115Z,2368
2017-05-07T06:23:55.620Z,2784
2017-05-07T06:24:36.124Z,2912
2017-05-07T06:25:16.584Z,3172
2017-05-07T06:25:57.075Z,3160
2017-05-07T06:26:37.505Z,2716
2017-05-07T06:27:17.957Z,2808
2017-05-07T06:27:58.419Z,2904
2017-05-07T06:28:38.904Z,3156
2017-05-07T06:29:19.383Z,3388
2017-05-07T06:29:59.853Z,3316
2017-05-07T06:30:40.946Z,3044
2017-05-07T06:31:21.733Z,2984
2017-05-07T06:32:02.294Z,3148
2017-05-07T06:32:43.309Z,3168
2017-05-07T06:33:24.161Z,2984
2017-05-07T06:34:05.037Z,2960
2017-05-07T06:34:45.716Z,2880
2017-05-07T06:35:26.497Z,2932
2017-05-07T06:36:07.466Z,3024
2017-05-07T06:36:47.886Z,3092
2017-05-07T06:37:28.314Z,3060
2017-05-07T06:38:08.778Z,3168
2017-05-07T06:38:49.213Z,3208
2017-05-07T06:39:29.646Z,3352
2017-05-07T06:40:10.084Z,3540
2017-05-07T06:40:50.518Z,3612
2017-05-07T06:41:30.986Z,3500
2017-05-07T06:42:11.415Z,3440
2017-05-07T06:42:51.867Z,3440
2017-05-07T06:43:32.271Z,3516
2017-05-07T06:44:12.793Z,3100
2017-05-07T06:44:53.200Z,3016
2017-05-07T06:45:33.650Z,2808
2017-05-07T06:46:14.217Z,3104
2017-05-07T06:46:54.657Z,3172
2017-05-07T06:47:35.146Z,3204
2017-05-07T06:48:15.593Z,3128
2017-05-07T06:48:56.084Z,3160
2017-05-07T06:49:36.491Z,3220
2017-05-07T06:50:16.960Z,3284
2017-05-07T06:50:57.411Z,3340
2017-05-07T06:51:37.888Z,3172
2017-05-07T06:52:18.397Z,2996
2017-05-07T06:52:58.822Z,2936
2017-05-07T06:53:39.262Z,2932
2017-05-07T06:54:19.699Z,3056
2017-05-07T06:55:00.139Z,3044
2017-05-07T06:55:40.567Z,3172
2017-05-07T06:56:21.047Z,3116
2017-05-07T06:57:01.477Z,3036
2017-05-07T06:57:41.943Z,3048
2017-05-07T06:58:22.370Z,3136
2017-05-07T06:59:02.944Z,3100
2017-05-07T06:59:43.283Z,3036
2017-05-07T07:00:23.747Z,2964
2017-05-07T07:01:04.207Z,2996
2017-05-07T07:01:44.636Z,3128
2017-05-07T07:02:25.112Z,3164
2017-05-07T07:03:05.559Z,3048
2017-05-07T07:03:46.036Z,3016
2017-05-07T07:04:26.504Z,3108
2017-05-07T07:05:07.510Z,2928
2017-05-07T07:05:47.970Z,3016
2017-05-07T07:06:28.395Z,2884
2017-05-07T07:07:09.638Z,3048
2017-05-07T07:07:50.113Z,3268
2017-05-07T07:08:30.549Z,3280
2017-05-07T07:09:10.988Z,3116
2017-05-07T07:09:51.438Z,3188
2017-05-07T07:10:31.869Z,3328
2017-05-07T07:11:12.309Z,3328
2017-05-07T07:11:52.740Z,2936
2017-05-07T07:12:33.204Z,2828
2017-05-07T07:13:13.670Z,3076
2017-05-07T07:13:54.181Z,3192
2017-05-07T07:14:34.688Z,3244
2017-05-07T07:15:15.173Z,3172
2017-05-07T07:15:55.647Z,3172
2017-05-07T07:16:36.067Z,3088
2017-05-07T07:17:16.560Z,3060
2017-05-07T07:17:56.997Z,3172
2017-05-07T07:18:38.119Z,3248
2017-05-07T07:19:18.569Z,3144
2017-05-07T07:19:59.014Z,3056
2017-05-07T07:20:39.484Z,2948
2017-05-07T07:21:19.944Z,2820
2017-05-07T07:22:00.393Z,2908
2017-05-07T07:22:40.829Z,2964
2017-05-07T07:23:21.277Z,2984
2017-05-07T07:24:01.724Z,2964
2017-05-07T07:24:42.173Z,3036
2017-05-07T07:25:22.599Z,3088
2017-05-07T07:26:03.046Z,3200
2017-05-07T07:26:43.495Z,3240
2017-05-07T07:27:23.959Z,3336
2017-05-07T07:28:04.361Z,3184
2017-05-07T07:28:44.814Z,3252
2017-05-07T07:29:25.272Z,3440
2017-05-07T07:30:05.738Z,3340
2017-05-07T07:30:46.189Z,3600
2017-05-07T07:31:26.655Z,3860
2017-05-07T07:32:07.150Z,3712
2017-05-07T07:32:47.520Z,3956
2017-05-07T07:33:27.977Z,3900
2017-05-07T07:34:08.395Z,3740
2017-05-07T07:34:48.845Z,3860
2017-05-07T07:35:29.248Z,3944
2017-05-07T07:36:09.692Z,4256
2017-05-07T07:36:50.119Z,4636
2017-05-07T07:37:30.570Z,4512
2017-05-07T07:38:10.981Z,4312
2017-05-07T07:38:51.408Z,4880
2017-05-07T07:39:31.857Z,4648
2017-05-07T07:40:12.303Z,4876
2017-05-07T07:40:52.768Z,4556
2017-05-07T07:41:33.228Z,4780
2017-05-07T07:42:13.682Z,4856
2017-05-07T07:42:54.156Z,4988
2017-05-07T07:43:34.592Z,4992
2017-05-07T07:44:15.048Z,4784
2017-05-07T07:44:55.513Z,4628
2017-05-07T07:45:35.976Z,4980
2017-05-07T07:46:17.906Z,4872
2017-05-07T07:46:58.326Z,4936
2017-05-07T07:47:38.780Z,4656
2017-05-07T07:48:19.861Z,4804
2017-05-07T07:49:00.303Z,4784
2017-05-07T07:49:40.732Z,4864
2017-05-07T07:50:21.170Z,4808
2017-05-07T07:51:01.596Z,4508
2017-05-07T07:51:42.017Z,4556
2017-05-07T07:52:22.496Z,4612
2017-05-07T07:53:02.934Z,4460
2017-05-07T07:53:43.403Z,4316
2017-05-07T07:54:23.862Z,4172
2017-05-07T07:55:04.341Z,3812
2017-05-07T07:55:44.782Z,4036
2017-05-07T07:56:25.241Z,4064
2017-05-07T07:57:05.700Z,4048
2017-05-07T07:57:46.166Z,3948
2017-05-07T07:58:26.609Z,3976
2017-05-07T07:59:07.115Z,4180
2017-05-07T07:59:47.532Z,4116
2017-05-07T08:00:27.988Z,4036
2017-05-07T08:01:08.453Z,4156
2017-05-07T08:01:48.902Z,4276
2017-05-07T08:02:29.367Z,4220
2017-05-07T08:03:10.342Z,4208
2017-05-07T08:03:50.802Z,4428
2017-05-07T08:04:31.266Z,4640
2017-05-07T08:05:11.709Z,4744
2017-05-07T08:05:52.156Z,4728
2017-05-07T08:06:32.597Z,4740
2017-05-07T08:07:13.050Z,4964
2017-05-07T08:07:53.489Z,5092
2017-05-07T08:08:33.919Z,4912
2017-05-07T08:09:14.371Z,4632
2017-05-07T08:09:54.822Z,4740
2017-05-07T08:10:35.531Z,5044
2017-05-07T08:11:15.986Z,5292
2017-05-07T08:11:56.442Z,5516
2017-05-07T08:12:36.899Z,5464
2017-05-07T08:13:17.356Z,5544
2017-05-07T08:13:57.819Z,5704
2017-05-07T08:14:38.277Z,5692
2017-05-07T08:15:18.734Z,5496
2017-05-07T08:15:59.222Z,5348
2017-05-07T08:16:39.656Z,6144
2017-05-07T08:17:20.121Z,5900
2017-05-07T08:18:00.637Z,5756
2017-05-07T08:18:41.077Z,5672
2017-05-07T08:19:21.548Z,5588
2017-05-07T08:20:02.015Z,5500
2017-05-07T08:20:42.453Z,5128
2017-05-07T08:21:22.908Z,5268
2017-05-07T08:22:03.381Z,5164
2017-05-07T08:22:44.655Z,5440
2017-05-07T08:23:25.994Z,5208
2017-05-07T08:24:06.479Z,5112
2017-05-07T08:24:47.000Z,5196
2017-05-07T08:25:27.455Z,5512
2017-05-07T08:26:07.904Z,5504
2017-05-07T08:26:48.387Z,5308
2017-05-07T08:27:28.819Z,5564
2017-05-07T08:28:09.262Z,5156
2017-05-07T08:28:49.696Z,5128
2017-05-07T08:29:30.140Z,5188
2017-05-07T08:30:10.604Z,5268
2017-05-07T08:30:51.059Z,5480
2017-05-07T08:31:32.448Z,5556
2017-05-07T08:32:12.887Z,5500
2017-05-07T08:32:53.376Z,5296
2017-05-07T08:33:33.827Z,5116
2017-05-07T08:34:14.332Z,5228
2017-05-07T08:34:54.751Z,5256
2017-05-07T08:35:35.194Z,5376
2017-05-07T08:36:15.662Z,5316
2017-05-07T08:36:56.111Z,5200
2017-05-07T08:37:36.564Z,5304
2017-05-07T08:38:17.029Z,5244
2017-05-07T08:40:14.683Z,4988
2017-05-07T08:40:55.161Z,5028
2017-05-07T08:41:35.669Z,5172
2017-05-07T08:42:16.139Z,5304
2017-05-07T08:42:56.699Z,5172
2017-05-07T08:43:37.096Z,4856
2017-05-07T08:46:10.132Z,5176
2017-05-07T08:46:50.599Z,5140
2017-05-07T08:47:31.102Z,5660
2017-05-07T08:48:11.587Z,5560
2017-05-07T08:48:52.068Z,5512
2017-05-07T08:49:32.574Z,5560
2017-05-07T08:50:13.055Z,5116
2017-05-07T08:50:53.556Z,5584
2017-05-07T08:51:34.020Z,5600
2017-05-07T08:52:14.547Z,5492
2017-05-07T08:52:55.039Z,5436
2017-05-07T08:53:35.499Z,5208
2017-05-07T08:54:15.985Z,5408
2017-05-07T08:54:56.485Z,5292
2017-05-07T08:55:36.990Z,5264
2017-05-07T08:56:17.464Z,5296
2017-05-07T08:56:57.918Z,5116
2017-05-07T08:57:38.391Z,5320
2017-05-07T08:58:18.881Z,5000
2017-05-07T08:58:59.440Z,4596
2017-05-07T08:59:39.859Z,4236
2017-05-07T09:00:20.272Z,4748
2017-05-07T09:01:00.741Z,4932
2017-05-07T09:02:58.370Z,4628
2017-05-07T09:03:38.876Z,4496
2017-05-07T09:04:19.342Z,4800
2017-05-07T09:04:59.875Z,5164
2017-05-07T09:05:40.399Z,5264
2017-05-07T09:06:20.889Z,5136
2017-05-07T09:07:01.366Z,5164
2017-05-07T09:07:41.861Z,5164
2017-05-07T09:10:10.015Z,5900
2017-05-07T09:10:50.496Z,6020
2017-05-07T09:11:30.982Z,6160
2017-05-07T09:12:11.498Z,6600
2017-05-07T09:12:51.960Z,6660
2017-05-07T09:13:32.431Z,6892
2017-05-07T09:14:12.913Z,7212
2017-05-07T09:14:53.405Z,7228
2017-05-07T09:15:33.900Z,7364
2017-05-07T09:16:14.374Z,7288
2017-05-07T09:16:54.873Z,5736
2017-05-07T09:17:35.359Z,5176
2017-05-07T09:18:15.858Z,4616
2017-05-07T09:18:56.344Z,5276
2017-05-07T09:19:36.817Z,6844
2017-05-07T09:20:17.298Z,6700
2017-05-07T09:20:57.762Z,7700
2017-05-07T09:21:38.226Z,7068
2017-05-07T09:22:18.678Z,6712
2017-05-07T09:22:59.138Z,6828
2017-05-07T09:23:39.592Z,7212
2017-05-07T09:24:20.070Z,8572
2017-05-07T09:25:00.551Z,9632
2017-05-07T09:25:40.990Z,10612
2017-05-07T09:26:21.438Z,10332
2017-05-07T09:27:01.885Z,9060
2017-05-07T09:27:42.309Z,8556
2017-05-07T09:28:22.752Z,7932
2017-05-07T09:29:03.184Z,6476
2017-05-07T09:29:43.625Z,5712
2017-05-07T09:30:24.062Z,6400
2017-05-07T09:31:04.509Z,6464
2017-05-07T09:31:44.939Z,6440
2017-05-07T09:32:25.372Z,5840
2017-05-07T09:33:05.804Z,5416
2017-05-07T09:33:46.261Z,5404
2017-05-07T09:36:04.787Z,6016
2017-05-07T09:36:45.257Z,6020
2017-05-07T09:37:25.754Z,5828
2017-05-07T09:38:06.218Z,5988
2017-05-07T09:38:46.709Z,5980
2017-05-07T09:39:27.194Z,6032
2017-05-07T09:40:07.653Z,5984
2017-05-07T09:40:48.107Z,5624
2017-05-07T09:41:28.567Z,5552
2017-05-07T09:42:09.038Z,5488
2017-05-07T09:42:49.520Z,5476
2017-05-07T09:43:29.984Z,5828
2017-05-07T09:44:10.417Z,5992
2017-05-07T09:44:50.846Z,6160
2017-05-07T09:45:31.286Z,6048
2017-05-07T09:46:11.732Z,6068
2017-05-07T09:46:52.201Z,6380
2017-05-07T09:47:32.691Z,6448
2017-05-07T09:48:13.209Z,6108
2017-05-07T09:48:53.763Z,5948
2017-05-07T09:49:34.312Z,5404
2017-05-07T09:50:14.878Z,5132
2017-05-07T09:50:55.457Z,6216
2017-05-07T09:51:35.991Z,6392
2017-05-07T09:52:16.463Z,6648
2017-05-07T09:52:56.956Z,6792
2017-05-07T09:53:37.427Z,6872
2017-05-07T09:54:17.881Z,6380
2017-05-07T09:54:58.303Z,6752
2017-05-07T09:55:38.769Z,6932
2017-05-07T09:57:51.479Z,7736
2017-05-07T09:58:31.973Z,8220
2017-05-07T09:59:12.512Z,8456
2017-05-07T09:59:53.004Z,8548
2017-05-07T10:00:33.479Z,8472
2017-05-07T10:01:13.977Z,8020
2017-05-07T10:01:54.457Z,7260
2017-05-07T10:02:34.937Z,6984
2017-05-07T10:03:15.408Z,6852
2017-05-07T10:03:55.880Z,6964
2017-05-07T10:04:36.371Z,7300
2017-05-07T10:05:16.867Z,6632
2017-05-07T10:05:57.337Z,6596
2017-05-07T10:08:30.416Z,6444
2017-05-07T10:09:10.886Z,6256
2017-05-07T10:09:51.379Z,6064
2017-05-07T10:10:31.856Z,6664
2017-05-07T10:11:12.352Z,7404
2017-05-07T10:11:52.840Z,7480
2017-05-07T10:12:33.327Z,7548
2017-05-07T10:13:13.800Z,7248
2017-05-07T10:13:54.337Z,7016
2017-05-07T10:14:34.812Z,6860
2017-05-07T10:15:15.301Z,6756
2017-05-07T10:15:55.796Z,6728
2017-05-07T10:16:36.281Z,6628
2017-05-07T10:17:16.774Z,6620
2017-05-07T10:17:57.246Z,6504
2017-05-07T10:18:38.652Z,6512
2017-05-07T10:19:19.085Z,6428
2017-05-07T10:19:59.533Z,6396